• METAR

    LHBP Budapest Liszt Ferenc repülőtér METAR

    LHBP 221400Z 20006KT 150V230 CAVOK 27/06 Q1013 NOSIG

    QNH légnyomás:1014hpa
    Hőmérséklet/temperature: 27°C
    Harmatpont/Dew Point Temp: 6°C

    LHDC Debreceni repülőtér METAR

    LHDC 221345Z 21004KT CAVOK 25/10 Q1014 NOSIG

    QNH légnyomás:1015hpa
    Hőmérskélet/temperature: 25°C
    Harmatpont/Dew Point Temp: 10°C

    LHPR Győr-pér repülőtér METAR

    LHPR 221345Z VRB03KT 9999 FEW056 FEW060TCU 26/12 Q1014 RMK BLU

    QNH légnyomás:1015hpa
    Hőmérskélet/temperature: 26°C
    Harmatpont/Dew Point Temp: 12°C

    lhsm Sármellék repülőtér METAR

    LHSM 221345Z 14003KT CAVOK 26/14 Q1014 NOSIG

    QNH légnyomás:1015hpa
    Hőmérskélet/temperature: 26°C
    Harmatpont/Dew Point Temp: 14°C

    lhpp Pécs-pogány repülőtér METAR

    LHPP 221345Z 27005KT CAVOK 26/06 Q1015 NOSIG

    QNH légnyomás:1016hpa
    Hőmérskélet/temperature: 26°C
    Harmatpont/Dew Point Temp: 6°C

    LHKE Kecskemét repülőtér METAR

    LHKE 221345Z 25006KT 220V300 CAVOK 27/06 Q1014 NOSIG RMK BLU

    QNH légnyomás:1014hpa
    Hőmérskélet/temperature: 27°C
    Harmatpont/Dew Point Temp: 6°C

    LHSN Szolnok repülőtér METAR

    LHSN 221345Z 19006KT 150V230 CAVOK 26/09 Q1014 NOSIG RMK BLU

    QNH légnyomás:1014hpa
    Hőmérskélet/temperature: 26°C
    Harmatpont/Dew Point Temp: 9°C

    LHUD szeged repülőtér METAR

    LHUD 221345Z 22005KT CAVOK 27/07 Q1015

    QNH légnyomás:1015hpa
    Hőmérskélet/temperature: 27°C
    Harmatpont/Dew Point Temp: 7°C

  • TÉRKÉPEK

    Felhőkép

    Széltérkép

    Hőtérkép

    radarkép

    map

    map

  • Műholdképek

    Magyarország műholdkép

    Europa műholdkép

    Europa szinoptikus térkép

  • ELTE ELŐREJELZÉS (2 NAP LHBP)

    2 napos légnyomás előrejelzés Budapest LHBP

    2 napos szél előrejelzés Budapest LHBP

    2 napos termik trigger előrejelzés Budapest LHBP

    2 napos felhőzet előrejelzés Budapest LHBP

    2 napos thermal index profile előrejelzés Budapest LHBP

    2 napos átlag emelés előrejelzés Budapest LHBP

    2 napos felhő alap előrejelzés Budapest LHBP

    2 napos hőmérséklet advekció előrejelzés Budapest LHBP

  • VILLÁMRADAR

  • ELŐREJELZÉS

  • WINDFINDER ELŐREJELZÉS

  • RIASZTÁS - VÉSZJELZÉS

Repülésmeteorológia, aktuális időjárási helyzet és előrejelzés

Repülésmeteorológia, várható időjárás jelentések, előrejelzések és riasztások. METAR, TAF adatok, aktuális időjárás helyzetek és térképek.

A meteorológia kialakulásában és fejlődésében kiemelt szerep jutott a repülésnek, illetve a repülés technikai fejlődésének. A repülésmeteorológia elsődlegesen a repülés biztonságát, másodlagosan a repülés gazdaságosságát hivatott szolgálni. Eleinte a katonai repülőgépeknek, később a polgári repülésnek, ma már a sportrepülő pilótáknak, és a mezőgazdasági pilótáknak is egyaránt szükségük van a naprakész meteorológiai információkra.

Repülésmeteorológia oldalunkon összegyűjtöttük a legnépszerűbb és legjobb időjárás oldalak hivatkozásait, hogy repülés előtt vagy akár közben minden fontos forrást egyszerűen és gyorsan megtalálj. Magyarország várható időjárása, légállapoti diagramok, termik előrejelzés, METAR adatok, vészjelzések és figyelmeztetések. A képernyő szélén közvetlenül pedig pozíciód aktuális időjárási paramétereit is megtalálod.

JOGI NYILATKOZAT

Az oldal használatával a látogató elfogadja az alábbi felhasználási feltételeket:

Az oldalon feltüntetett repülésmeteorológia információkat mindenki csak saját felelősségre használhatja. A feltüntetett külső forrásokból származó információk pontosságáért és tartalmáért, valamint az esetlegesen ebből adódó bármilyen káresemény kapcsán a FLYTIME.HU nem vállal felelősséget!